sensor_id;sensor_type;location;lat;lon;timestamp;temperature;humidity
15452;DHT22;7827;53.594;9.938;2022-09-17T00:01:38;12.70;99.90
15452;DHT22;7827;53.594;9.938;2022-09-17T00:04:06;12.70;99.90
15452;DHT22;7827;53.594;9.938;2022-09-17T00:06:36;12.60;99.90
15452;DHT22;7827;53.594;9.938;2022-09-17T00:09:06;12.60;99.90
15452;DHT22;7827;53.594;9.938;2022-09-17T00:11:36;12.60;99.90
15452;DHT22;7827;53.594;9.938;2022-09-17T00:14:11;12.50;99.90
15452;DHT22;7827;53.594;9.938;2022-09-17T00:16:43;12.50;99.90
15452;DHT22;7827;53.594;9.938;2022-09-17T00:19:14;12.60;99.90
15452;DHT22;7827;53.594;9.938;2022-09-17T00:21:44;12.60;99.90
15452;DHT22;7827;53.594;9.938;2022-09-17T00:24:13;12.60;99.90
15452;DHT22;7827;53.594;9.938;2022-09-17T00:26:43;12.70;99.90
15452;DHT22;7827;53.594;9.938;2022-09-17T00:29:15;12.70;99.90
15452;DHT22;7827;53.594;9.938;2022-09-17T00:31:43;12.60;99.90
15452;DHT22;7827;53.594;9.938;2022-09-17T00:34:11;12.60;99.90
15452;DHT22;7827;53.594;9.938;2022-09-17T00:36:39;12.70;99.90
15452;DHT22;7827;53.594;9.938;2022-09-17T00:39:10;12.60;99.90
15452;DHT22;7827;53.594;9.938;2022-09-17T00:41:42;12.60;99.90
15452;DHT22;7827;53.594;9.938;2022-09-17T00:44:42;12.60;99.90
15452;DHT22;7827;53.594;9.938;2022-09-17T00:47:21;12.70;99.90
15452;DHT22;7827;53.594;9.938;2022-09-17T00:49:55;12.60;99.90
15452;DHT22;7827;53.594;9.938;2022-09-17T00:52:29;12.50;99.90
15452;DHT22;7827;53.594;9.938;2022-09-17T00:55:06;12.50;99.90
15452;DHT22;7827;53.594;9.938;2022-09-17T00:57:40;12.50;99.90
15452;DHT22;7827;53.594;9.938;2022-09-17T01:00:13;12.50;99.90
15452;DHT22;7827;53.594;9.938;2022-09-17T01:02:43;12.50;99.90
15452;DHT22;7827;53.594;9.938;2022-09-17T01:05:12;12.40;99.90
15452;DHT22;7827;53.594;9.938;2022-09-17T01:07:58;12.40;99.90
15452;DHT22;7827;53.594;9.938;2022-09-17T01:11:01;12.30;99.90
15452;DHT22;7827;53.594;9.938;2022-09-17T01:13:50;12.20;99.90
15452;DHT22;7827;53.594;9.938;2022-09-17T01:16:32;12.30;99.90
15452;DHT22;7827;53.594;9.938;2022-09-17T01:19:28;12.30;99.90
15452;DHT22;7827;53.594;9.938;2022-09-17T01:22:14;12.30;99.90
15452;DHT22;7827;53.594;9.938;2022-09-17T01:24:59;12.20;99.90
15452;DHT22;7827;53.594;9.938;2022-09-17T01:28:21;12.30;99.90
15452;DHT22;7827;53.594;9.938;2022-09-17T01:31:14;12.20;99.90
15452;DHT22;7827;53.594;9.938;2022-09-17T01:33:55;12.20;99.90
15452;DHT22;7827;53.594;9.938;2022-09-17T01:36:58;12.20;99.90
15452;DHT22;7827;53.594;9.938;2022-09-17T01:39:40;12.30;99.90
15452;DHT22;7827;53.594;9.938;2022-09-17T01:42:18;12.20;99.90
15452;DHT22;7827;53.594;9.938;2022-09-17T01:44:58;12.20;99.90
15452;DHT22;7827;53.594;9.938;2022-09-17T01:47:35;12.20;99.90
15452;DHT22;7827;53.594;9.938;2022-09-17T01:50:09;12.10;99.90
15452;DHT22;7827;53.594;9.938;2022-09-17T01:52:40;12.10;99.90
15452;DHT22;7827;53.594;9.938;2022-09-17T01:55:15;12.20;99.90
15452;DHT22;7827;53.594;9.938;2022-09-17T01:57:50;12.10;99.90
15452;DHT22;7827;53.594;9.938;2022-09-17T02:00:21;12.20;99.90
15452;DHT22;7827;53.594;9.938;2022-09-17T02:02:55;12.20;99.90
15452;DHT22;7827;53.594;9.938;2022-09-17T02:05:33;12.20;99.90
15452;DHT22;7827;53.594;9.938;2022-09-17T02:08:08;12.10;99.90
15452;DHT22;7827;53.594;9.938;2022-09-17T02:10:45;12.20;99.90
15452;DHT22;7827;53.594;9.938;2022-09-17T02:13:19;12.10;99.90
15452;DHT22;7827;53.594;9.938;2022-09-17T02:15:53;12.10;99.90
15452;DHT22;7827;53.594;9.938;2022-09-17T02:18:29;12.10;99.90
15452;DHT22;7827;53.594;9.938;2022-09-17T02:21:07;12.10;99.90
15452;DHT22;7827;53.594;9.938;2022-09-17T02:23:44;12.10;99.90
15452;DHT22;7827;53.594;9.938;2022-09-17T02:26:19;12.10;99.90
15452;DHT22;7827;53.594;9.938;2022-09-17T02:28:50;12.10;99.90
15452;DHT22;7827;53.594;9.938;2022-09-17T02:31:23;12.10;99.90
15452;DHT22;7827;53.594;9.938;2022-09-17T02:33:57;12.00;99.90
15452;DHT22;7827;53.594;9.938;2022-09-17T02:36:31;12.00;99.90
15452;DHT22;7827;53.594;9.938;2022-09-17T02:39:02;12.00;99.90
15452;DHT22;7827;53.594;9.938;2022-09-17T02:41:39;12.00;99.90
15452;DHT22;7827;53.594;9.938;2022-09-17T02:44:21;12.00;99.90
15452;DHT22;7827;53.594;9.938;2022-09-17T02:47:12;12.00;99.90
15452;DHT22;7827;53.594;9.938;2022-09-17T02:53:10;12.00;99.90
15452;DHT22;7827;53.594;9.938;2022-09-17T02:55:59;12.00;99.90
15452;DHT22;7827;53.594;9.938;2022-09-17T02:58:42;12.00;99.90
15452;DHT22;7827;53.594;9.938;2022-09-17T03:01:18;12.00;99.90
15452;DHT22;7827;53.594;9.938;2022-09-17T03:03:51;12.00;99.90
15452;DHT22;7827;53.594;9.938;2022-09-17T03:06:23;12.00;99.90
15452;DHT22;7827;53.594;9.938;2022-09-17T03:08:52;12.00;99.90
15452;DHT22;7827;53.594;9.938;2022-09-17T03:11:22;12.00;99.90
15452;DHT22;7827;53.594;9.938;2022-09-17T03:13:50;12.00;99.90
15452;DHT22;7827;53.594;9.938;2022-09-17T03:16:19;12.00;99.90
15452;DHT22;7827;53.594;9.938;2022-09-17T03:18:47;11.90;99.90
15452;DHT22;7827;53.594;9.938;2022-09-17T03:21:15;11.90;99.90
15452;DHT22;7827;53.594;9.938;2022-09-17T03:23:45;11.90;99.90
15452;DHT22;7827;53.594;9.938;2022-09-17T03:26:13;12.00;99.90
15452;DHT22;7827;53.594;9.938;2022-09-17T03:28:42;12.00;99.90
15452;DHT22;7827;53.594;9.938;2022-09-17T03:31:11;11.90;99.90
15452;DHT22;7827;53.594;9.938;2022-09-17T03:33:39;11.90;99.90
15452;DHT22;7827;53.594;9.938;2022-09-17T03:36:07;12.00;99.90
15452;DHT22;7827;53.594;9.938;2022-09-17T03:38:35;11.90;99.90
15452;DHT22;7827;53.594;9.938;2022-09-17T03:41:06;11.90;99.90
15452;DHT22;7827;53.594;9.938;2022-09-17T03:43:34;11.90;99.90
15452;DHT22;7827;53.594;9.938;2022-09-17T03:46:02;11.90;99.90
15452;DHT22;7827;53.594;9.938;2022-09-17T03:48:30;11.90;99.90
15452;DHT22;7827;53.594;9.938;2022-09-17T03:51:03;11.90;99.90
15452;DHT22;7827;53.594;9.938;2022-09-17T03:53:31;11.90;99.90
15452;DHT22;7827;53.594;9.938;2022-09-17T03:56:01;12.00;99.90
15452;DHT22;7827;53.594;9.938;2022-09-17T03:58:33;11.90;99.90
15452;DHT22;7827;53.594;9.938;2022-09-17T04:01:01;11.90;99.90
15452;DHT22;7827;53.594;9.938;2022-09-17T04:03:30;11.80;99.90
15452;DHT22;7827;53.594;9.938;2022-09-17T04:05:59;11.80;99.90
15452;DHT22;7827;53.594;9.938;2022-09-17T04:08:27;11.70;99.90
15452;DHT22;7827;53.594;9.938;2022-09-17T04:10:55;11.70;99.90
15452;DHT22;7827;53.594;9.938;2022-09-17T04:13:23;11.70;99.90
15452;DHT22;7827;53.594;9.938;2022-09-17T04:15:53;11.70;99.90
15452;DHT22;7827;53.594;9.938;2022-09-17T04:18:21;11.70;99.90
15452;DHT22;7827;53.594;9.938;2022-09-17T04:20:50;11.70;99.90
15452;DHT22;7827;53.594;9.938;2022-09-17T04:23:18;11.70;99.90
15452;DHT22;7827;53.594;9.938;2022-09-17T04:25:47;11.70;99.90
15452;DHT22;7827;53.594;9.938;2022-09-17T04:28:15;11.60;99.90
15452;DHT22;7827;53.594;9.938;2022-09-17T04:30:43;11.60;99.90
15452;DHT22;7827;53.594;9.938;2022-09-17T04:33:12;11.60;99.90
15452;DHT22;7827;53.594;9.938;2022-09-17T04:35:40;11.60;99.90
15452;DHT22;7827;53.594;9.938;2022-09-17T04:38:09;11.60;99.90
15452;DHT22;7827;53.594;9.938;2022-09-17T04:40:39;11.70;99.90
15452;DHT22;7827;53.594;9.938;2022-09-17T04:43:08;11.60;99.90
15452;DHT22;7827;53.594;9.938;2022-09-17T04:45:37;11.50;99.90
15452;DHT22;7827;53.594;9.938;2022-09-17T04:48:05;11.50;99.90
15452;DHT22;7827;53.594;9.938;2022-09-17T04:50:36;11.50;99.90
15452;DHT22;7827;53.594;9.938;2022-09-17T04:53:05;11.50;99.90
15452;DHT22;7827;53.594;9.938;2022-09-17T04:55:33;11.50;99.90
15452;DHT22;7827;53.594;9.938;2022-09-17T04:58:01;11.50;99.90
15452;DHT22;7827;53.594;9.938;2022-09-17T05:00:30;11.40;99.90
15452;DHT22;7827;53.594;9.938;2022-09-17T05:02:58;11.40;99.90
15452;DHT22;7827;53.594;9.938;2022-09-17T05:05:26;11.40;99.90
15452;DHT22;7827;53.594;9.938;2022-09-17T05:07:56;11.40;99.90
15452;DHT22;7827;53.594;9.938;2022-09-17T05:10:24;11.30;99.90
15452;DHT22;7827;53.594;9.938;2022-09-17T05:12:53;11.30;99.90
15452;DHT22;7827;53.594;9.938;2022-09-17T05:15:24;11.40;99.90
15452;DHT22;7827;53.594;9.938;2022-09-17T05:17:53;11.40;99.90
15452;DHT22;7827;53.594;9.938;2022-09-17T05:20:21;11.30;99.90
15452;DHT22;7827;53.594;9.938;2022-09-17T05:22:51;11.40;99.90
15452;DHT22;7827;53.594;9.938;2022-09-17T05:25:21;11.40;99.90
15452;DHT22;7827;53.594;9.938;2022-09-17T05:27:50;11.40;99.90
15452;DHT22;7827;53.594;9.938;2022-09-17T05:30:20;11.40;99.90
15452;DHT22;7827;53.594;9.938;2022-09-17T05:32:54;11.40;99.90
15452;DHT22;7827;53.594;9.938;2022-09-17T05:35:25;11.50;99.90
15452;DHT22;7827;53.594;9.938;2022-09-17T05:37:58;11.50;99.90
15452;DHT22;7827;53.594;9.938;2022-09-17T05:40:28;11.50;99.90
15452;DHT22;7827;53.594;9.938;2022-09-17T05:42:57;11.50;99.90
15452;DHT22;7827;53.594;9.938;2022-09-17T05:45:27;11.50;99.90
15452;DHT22;7827;53.594;9.938;2022-09-17T05:47:57;11.60;99.90
15452;DHT22;7827;53.594;9.938;2022-09-17T05:50:27;11.60;99.90
15452;DHT22;7827;53.594;9.938;2022-09-17T05:52:56;11.50;99.90
15452;DHT22;7827;53.594;9.938;2022-09-17T05:55:32;11.50;99.90
15452;DHT22;7827;53.594;9.938;2022-09-17T05:58:08;11.50;99.90
15452;DHT22;7827;53.594;9.938;2022-09-17T06:00:38;11.60;99.90
15452;DHT22;7827;53.594;9.938;2022-09-17T06:03:07;11.60;99.90
15452;DHT22;7827;53.594;9.938;2022-09-17T06:05:37;11.60;99.90
15452;DHT22;7827;53.594;9.938;2022-09-17T06:08:06;11.70;99.90
15452;DHT22;7827;53.594;9.938;2022-09-17T06:10:37;11.60;99.90
15452;DHT22;7827;53.594;9.938;2022-09-17T06:13:05;11.60;99.90
15452;DHT22;7827;53.594;9.938;2022-09-17T06:15:34;11.60;99.90
15452;DHT22;7827;53.594;9.938;2022-09-17T06:18:02;11.60;99.90
15452;DHT22;7827;53.594;9.938;2022-09-17T06:20:30;11.70;99.90
15452;DHT22;7827;53.594;9.938;2022-09-17T06:22:59;11.60;99.90
15452;DHT22;7827;53.594;9.938;2022-09-17T06:25:27;11.60;99.90
15452;DHT22;7827;53.594;9.938;2022-09-17T06:27:56;11.60;99.90
15452;DHT22;7827;53.594;9.938;2022-09-17T06:30:25;11.50;99.90
15452;DHT22;7827;53.594;9.938;2022-09-17T06:32:53;11.50;99.90
15452;DHT22;7827;53.594;9.938;2022-09-17T06:35:22;11.50;99.90
15452;DHT22;7827;53.594;9.938;2022-09-17T06:37:50;11.60;99.90
15452;DHT22;7827;53.594;9.938;2022-09-17T06:40:18;11.50;99.90
15452;DHT22;7827;53.594;9.938;2022-09-17T06:42:49;11.50;99.90
15452;DHT22;7827;53.594;9.938;2022-09-17T06:45:19;11.50;99.90
15452;DHT22;7827;53.594;9.938;2022-09-17T06:47:47;11.50;99.90
15452;DHT22;7827;53.594;9.938;2022-09-17T06:50:15;11.50;99.90
15452;DHT22;7827;53.594;9.938;2022-09-17T06:52:47;11.50;99.90
15452;DHT22;7827;53.594;9.938;2022-09-17T06:55:16;11.50;99.90
15452;DHT22;7827;53.594;9.938;2022-09-17T06:57:45;11.50;99.90
15452;DHT22;7827;53.594;9.938;2022-09-17T07:00:14;11.60;99.90
15452;DHT22;7827;53.594;9.938;2022-09-17T07:02:54;11.90;99.90
15452;DHT22;7827;53.594;9.938;2022-09-17T07:05:23;12.10;99.90
15452;DHT22;7827;53.594;9.938;2022-09-17T07:07:52;12.30;99.90
15452;DHT22;7827;53.594;9.938;2022-09-17T07:10:21;12.50;99.90
15452;DHT22;7827;53.594;9.938;2022-09-17T07:12:50;12.60;99.90
15452;DHT22;7827;53.594;9.938;2022-09-17T07:15:18;12.80;99.90
15452;DHT22;7827;53.594;9.938;2022-09-17T07:17:47;12.90;99.90
15452;DHT22;7827;53.594;9.938;2022-09-17T07:20:16;13.00;99.90
15452;DHT22;7827;53.594;9.938;2022-09-17T07:22:44;13.10;99.90
15452;DHT22;7827;53.594;9.938;2022-09-17T07:25:12;13.00;99.90
15452;DHT22;7827;53.594;9.938;2022-09-17T07:27:42;13.00;99.90
15452;DHT22;7827;53.594;9.938;2022-09-17T07:30:11;13.00;99.90
15452;DHT22;7827;53.594;9.938;2022-09-17T07:32:41;12.90;99.90
15452;DHT22;7827;53.594;9.938;2022-09-17T07:35:10;12.90;99.90
15452;DHT22;7827;53.594;9.938;2022-09-17T07:37:39;12.80;99.90
15452;DHT22;7827;53.594;9.938;2022-09-17T07:40:08;12.80;99.90
15452;DHT22;7827;53.594;9.938;2022-09-17T07:42:36;12.80;99.90
15452;DHT22;7827;53.594;9.938;2022-09-17T07:45:05;12.80;99.90
15452;DHT22;7827;53.594;9.938;2022-09-17T07:47:39;12.80;99.90
15452;DHT22;7827;53.594;9.938;2022-09-17T07:50:09;12.90;99.90
15452;DHT22;7827;53.594;9.938;2022-09-17T07:52:37;13.00;99.90
15452;DHT22;7827;53.594;9.938;2022-09-17T07:55:06;13.10;99.90
15452;DHT22;7827;53.594;9.938;2022-09-17T07:57:34;13.20;99.90
15452;DHT22;7827;53.594;9.938;2022-09-17T08:00:03;13.20;99.90
15452;DHT22;7827;53.594;9.938;2022-09-17T08:02:37;13.20;99.90
15452;DHT22;7827;53.594;9.938;2022-09-17T08:05:06;13.10;99.90
15452;DHT22;7827;53.594;9.938;2022-09-17T08:07:35;13.10;99.90
15452;DHT22;7827;53.594;9.938;2022-09-17T08:10:04;13.00;99.90
15452;DHT22;7827;53.594;9.938;2022-09-17T08:12:33;13.00;99.90
15452;DHT22;7827;53.594;9.938;2022-09-17T08:15:01;13.10;99.90
15452;DHT22;7827;53.594;9.938;2022-09-17T08:17:29;13.10;99.90
15452;DHT22;7827;53.594;9.938;2022-09-17T08:19:58;13.10;99.90
15452;DHT22;7827;53.594;9.938;2022-09-17T08:22:26;13.20;99.90
15452;DHT22;7827;53.594;9.938;2022-09-17T08:24:55;13.10;99.90
15452;DHT22;7827;53.594;9.938;2022-09-17T08:27:24;13.10;99.90
15452;DHT22;7827;53.594;9.938;2022-09-17T08:29:52;13.10;99.90
15452;DHT22;7827;53.594;9.938;2022-09-17T08:32:20;12.90;99.90
15452;DHT22;7827;53.594;9.938;2022-09-17T08:34:48;12.80;99.90
15452;DHT22;7827;53.594;9.938;2022-09-17T08:37:16;12.90;99.90
15452;DHT22;7827;53.594;9.938;2022-09-17T08:39:44;12.90;99.90
15452;DHT22;7827;53.594;9.938;2022-09-17T08:42:19;13.10;99.90
15452;DHT22;7827;53.594;9.938;2022-09-17T08:44:54;13.20;99.90
15452;DHT22;7827;53.594;9.938;2022-09-17T08:47:28;13.30;99.90
15452;DHT22;7827;53.594;9.938;2022-09-17T08:50:04;13.40;99.90
15452;DHT22;7827;53.594;9.938;2022-09-17T08:53:03;13.70;99.90
15452;DHT22;7827;53.594;9.938;2022-09-17T08:55:43;13.70;99.90
15452;DHT22;7827;53.594;9.938;2022-09-17T08:58:40;13.70;99.90
15452;DHT22;7827;53.594;9.938;2022-09-17T09:01:34;13.70;99.90
15452;DHT22;7827;53.594;9.938;2022-09-17T09:07:23;13.60;99.90
15452;DHT22;7827;53.594;9.938;2022-09-17T09:10:03;13.60;99.90
15452;DHT22;7827;53.594;9.938;2022-09-17T09:12:36;13.60;99.90
15452;DHT22;7827;53.594;9.938;2022-09-17T09:15:26;13.40;99.90
15452;DHT22;7827;53.594;9.938;2022-09-17T09:18:03;13.20;99.90
15452;DHT22;7827;53.594;9.938;2022-09-17T09:20:48;13.10;99.90
15452;DHT22;7827;53.594;9.938;2022-09-17T09:23:22;13.00;99.90
15452;DHT22;7827;53.594;9.938;2022-09-17T09:25:59;13.00;99.90
15452;DHT22;7827;53.594;9.938;2022-09-17T09:28:56;13.20;99.90
15452;DHT22;7827;53.594;9.938;2022-09-17T09:31:44;13.30;99.90
15452;DHT22;7827;53.594;9.938;2022-09-17T09:34:22;13.40;99.90
15452;DHT22;7827;53.594;9.938;2022-09-17T09:36:56;13.60;99.90
15452;DHT22;7827;53.594;9.938;2022-09-17T09:39:38;13.60;99.90
15452;DHT22;7827;53.594;9.938;2022-09-17T09:42:17;13.70;99.90
15452;DHT22;7827;53.594;9.938;2022-09-17T09:44:50;13.70;99.90
15452;DHT22;7827;53.594;9.938;2022-09-17T09:47:51;13.70;99.90
15452;DHT22;7827;53.594;9.938;2022-09-17T09:50:36;13.70;99.90
15452;DHT22;7827;53.594;9.938;2022-09-17T09:53:38;13.60;99.90
15452;DHT22;7827;53.594;9.938;2022-09-17T09:56:34;13.50;99.90
15452;DHT22;7827;53.594;9.938;2022-09-17T09:59:14;13.60;99.90
15452;DHT22;7827;53.594;9.938;2022-09-17T10:01:42;13.50;99.90
15452;DHT22;7827;53.594;9.938;2022-09-17T10:04:18;13.50;99.90
15452;DHT22;7827;53.594;9.938;2022-09-17T10:06:50;13.50;99.90
15452;DHT22;7827;53.594;9.938;2022-09-17T10:09:20;13.50;99.90
15452;DHT22;7827;53.594;9.938;2022-09-17T10:12:14;13.40;99.90
15452;DHT22;7827;53.594;9.938;2022-09-17T10:14:45;13.50;99.90
15452;DHT22;7827;53.594;9.938;2022-09-17T10:17:19;13.40;99.90
15452;DHT22;7827;53.594;9.938;2022-09-17T10:20:13;13.50;99.90
15452;DHT22;7827;53.594;9.938;2022-09-17T10:22:48;13.60;99.90
15452;DHT22;7827;53.594;9.938;2022-09-17T10:25:26;13.50;99.90
15452;DHT22;7827;53.594;9.938;2022-09-17T10:27:58;13.40;99.90
15452;DHT22;7827;53.594;9.938;2022-09-17T10:30:28;13.30;99.90
15452;DHT22;7827;53.594;9.938;2022-09-17T10:33:19;13.40;99.90
15452;DHT22;7827;53.594;9.938;2022-09-17T10:35:56;13.60;99.90
15452;DHT22;7827;53.594;9.938;2022-09-17T10:38:29;13.60;99.90
15452;DHT22;7827;53.594;9.938;2022-09-17T10:41:09;13.50;99.90
15452;DHT22;7827;53.594;9.938;2022-09-17T10:43:42;13.50;99.90
15452;DHT22;7827;53.594;9.938;2022-09-17T10:46:15;13.30;99.90
15452;DHT22;7827;53.594;9.938;2022-09-17T10:48:58;13.20;99.90
15452;DHT22;7827;53.594;9.938;2022-09-17T10:51:38;13.30;99.90
15452;DHT22;7827;53.594;9.938;2022-09-17T10:54:18;13.40;99.90
15452;DHT22;7827;53.594;9.938;2022-09-17T10:57:00;13.40;99.90
15452;DHT22;7827;53.594;9.938;2022-09-17T10:59:57;13.40;99.90
15452;DHT22;7827;53.594;9.938;2022-09-17T11:03:17;13.50;99.90
15452;DHT22;7827;53.594;9.938;2022-09-17T11:06:06;13.50;99.90
15452;DHT22;7827;53.594;9.938;2022-09-17T11:08:53;13.20;99.90
15452;DHT22;7827;53.594;9.938;2022-09-17T11:11:38;13.20;99.90
15452;DHT22;7827;53.594;9.938;2022-09-17T11:14:24;13.20;99.90
15452;DHT22;7827;53.594;9.938;2022-09-17T11:17:12;13.30;99.90
15452;DHT22;7827;53.594;9.938;2022-09-17T11:19:58;13.50;99.90
15452;DHT22;7827;53.594;9.938;2022-09-17T11:22:39;13.50;99.90
15452;DHT22;7827;53.594;9.938;2022-09-17T11:25:27;13.50;99.90
15452;DHT22;7827;53.594;9.938;2022-09-17T11:28:16;13.60;99.90
15452;DHT22;7827;53.594;9.938;2022-09-17T11:31:01;13.50;99.90
15452;DHT22;7827;53.594;9.938;2022-09-17T11:33:54;13.60;99.90
15452;DHT22;7827;53.594;9.938;2022-09-17T11:36:42;13.60;99.90
15452;DHT22;7827;53.594;9.938;2022-09-17T11:39:19;13.70;99.90
15452;DHT22;7827;53.594;9.938;2022-09-17T11:41:54;13.80;99.90
15452;DHT22;7827;53.594;9.938;2022-09-17T11:44:28;13.90;99.90
15452;DHT22;7827;53.594;9.938;2022-09-17T11:47:04;13.90;99.90
15452;DHT22;7827;53.594;9.938;2022-09-17T11:49:40;13.80;99.90
15452;DHT22;7827;53.594;9.938;2022-09-17T11:52:17;13.90;99.90
15452;DHT22;7827;53.594;9.938;2022-09-17T11:54:51;14.00;99.90
15452;DHT22;7827;53.594;9.938;2022-09-17T11:57:26;14.00;99.90
15452;DHT22;7827;53.594;9.938;2022-09-17T12:00:03;14.00;99.90
15452;DHT22;7827;53.594;9.938;2022-09-17T12:02:46;14.00;99.90
15452;DHT22;7827;53.594;9.938;2022-09-17T12:05:23;13.90;99.90
15452;DHT22;7827;53.594;9.938;2022-09-17T12:08:02;13.90;99.90
15452;DHT22;7827;53.594;9.938;2022-09-17T12:10:44;13.90;99.90
15452;DHT22;7827;53.594;9.938;2022-09-17T12:13:26;13.70;99.90
15452;DHT22;7827;53.594;9.938;2022-09-17T12:16:09;13.70;99.90
15452;DHT22;7827;53.594;9.938;2022-09-17T12:18:49;13.70;99.90
15452;DHT22;7827;53.594;9.938;2022-09-17T12:21:26;13.80;99.90
15452;DHT22;7827;53.594;9.938;2022-09-17T12:24:02;13.80;99.90
15452;DHT22;7827;53.594;9.938;2022-09-17T12:26:58;13.80;99.90
15452;DHT22;7827;53.594;9.938;2022-09-17T12:32:26;14.30;99.90
15452;DHT22;7827;53.594;9.938;2022-09-17T12:35:21;14.30;99.90
15452;DHT22;7827;53.594;9.938;2022-09-17T12:38:41;14.30;99.90
15452;DHT22;7827;53.594;9.938;2022-09-17T12:41:37;14.70;99.90
15452;DHT22;7827;53.594;9.938;2022-09-17T12:44:42;14.80;99.90
15452;DHT22;7827;53.594;9.938;2022-09-17T12:47:44;14.90;99.90
15452;DHT22;7827;53.594;9.938;2022-09-17T12:50:32;15.10;99.90
15452;DHT22;7827;53.594;9.938;2022-09-17T12:53:14;15.20;99.90
15452;DHT22;7827;53.594;9.938;2022-09-17T12:56:01;15.40;99.90
15452;DHT22;7827;53.594;9.938;2022-09-17T12:58:45;15.50;99.90
15452;DHT22;7827;53.594;9.938;2022-09-17T13:01:28;15.60;99.90
15452;DHT22;7827;53.594;9.938;2022-09-17T13:04:10;15.80;99.90
15452;DHT22;7827;53.594;9.938;2022-09-17T13:07:28;15.80;99.90
15452;DHT22;7827;53.594;9.938;2022-09-17T13:10:35;15.70;99.90
15452;DHT22;7827;53.594;9.938;2022-09-17T13:13:23;15.50;99.90
15452;DHT22;7827;53.594;9.938;2022-09-17T13:16:06;15.20;99.90
15452;DHT22;7827;53.594;9.938;2022-09-17T13:18:51;14.60;99.90
15452;DHT22;7827;53.594;9.938;2022-09-17T13:21:48;13.60;99.90
15452;DHT22;7827;53.594;9.938;2022-09-17T13:24:21;13.20;99.90
15452;DHT22;7827;53.594;9.938;2022-09-17T13:26:53;13.00;99.90
15452;DHT22;7827;53.594;9.938;2022-09-17T13:30:01;13.00;99.90
15452;DHT22;7827;53.594;9.938;2022-09-17T13:32:50;12.90;99.90
15452;DHT22;7827;53.594;9.938;2022-09-17T13:35:45;12.90;99.90
15452;DHT22;7827;53.594;9.938;2022-09-17T13:38:22;12.90;99.90
15452;DHT22;7827;53.594;9.938;2022-09-17T13:40:51;12.90;99.90
15452;DHT22;7827;53.594;9.938;2022-09-17T13:43:43;13.00;99.90
15452;DHT22;7827;53.594;9.938;2022-09-17T13:46:21;13.00;99.90
15452;DHT22;7827;53.594;9.938;2022-09-17T13:48:56;13.10;99.90
15452;DHT22;7827;53.594;9.938;2022-09-17T13:51:50;13.20;99.90
15452;DHT22;7827;53.594;9.938;2022-09-17T13:54:21;13.50;99.90
15452;DHT22;7827;53.594;9.938;2022-09-17T13:57:06;13.70;99.90
15452;DHT22;7827;53.594;9.938;2022-09-17T13:59:52;13.90;99.90
15452;DHT22;7827;53.594;9.938;2022-09-17T14:02:37;14.00;99.90
15452;DHT22;7827;53.594;9.938;2022-09-17T14:05:34;13.90;99.90
15452;DHT22;7827;53.594;9.938;2022-09-17T14:08:12;13.80;99.90
15452;DHT22;7827;53.594;9.938;2022-09-17T14:11:00;13.80;99.90
15452;DHT22;7827;53.594;9.938;2022-09-17T14:13:44;13.80;99.90
15452;DHT22;7827;53.594;9.938;2022-09-17T14:16:34;13.60;99.90
15452;DHT22;7827;53.594;9.938;2022-09-17T14:19:26;13.60;99.90
15452;DHT22;7827;53.594;9.938;2022-09-17T14:22:02;13.50;99.90
15452;DHT22;7827;53.594;9.938;2022-09-17T14:24:46;13.60;99.90
15452;DHT22;7827;53.594;9.938;2022-09-17T14:27:28;13.60;99.90
15452;DHT22;7827;53.594;9.938;2022-09-17T14:30:14;13.70;99.90
15452;DHT22;7827;53.594;9.938;2022-09-17T14:32:52;13.70;99.90
15452;DHT22;7827;53.594;9.938;2022-09-17T14:35:30;13.90;99.90
15452;DHT22;7827;53.594;9.938;2022-09-17T14:38:08;13.90;99.90
15452;DHT22;7827;53.594;9.938;2022-09-17T14:40:43;13.80;99.90
15452;DHT22;7827;53.594;9.938;2022-09-17T14:43:18;13.50;99.90
15452;DHT22;7827;53.594;9.938;2022-09-17T14:45:55;13.10;99.90
15452;DHT22;7827;53.594;9.938;2022-09-17T14:48:29;12.90;99.90
15452;DHT22;7827;53.594;9.938;2022-09-17T14:51:37;12.70;99.90
15452;DHT22;7827;53.594;9.938;2022-09-17T14:54:17;12.70;99.90
15452;DHT22;7827;53.594;9.938;2022-09-17T14:56:58;12.60;99.90
15452;DHT22;7827;53.594;9.938;2022-09-17T14:59:37;12.50;99.90
15452;DHT22;7827;53.594;9.938;2022-09-17T15:02:32;12.50;99.90
15452;DHT22;7827;53.594;9.938;2022-09-17T15:05:20;12.50;99.90
15452;DHT22;7827;53.594;9.938;2022-09-17T15:08:03;12.50;99.90
15452;DHT22;7827;53.594;9.938;2022-09-17T15:10:46;12.60;99.90
15452;DHT22;7827;53.594;9.938;2022-09-17T15:13:18;12.70;99.90
15452;DHT22;7827;53.594;9.938;2022-09-17T15:15:54;12.80;99.90
15452;DHT22;7827;53.594;9.938;2022-09-17T15:18:34;12.90;99.90
15452;DHT22;7827;53.594;9.938;2022-09-17T15:21:13;12.80;99.90
15452;DHT22;7827;53.594;9.938;2022-09-17T15:23:52;12.90;99.90
15452;DHT22;7827;53.594;9.938;2022-09-17T15:26:28;12.90;99.90
15452;DHT22;7827;53.594;9.938;2022-09-17T15:29:02;12.80;99.90
15452;DHT22;7827;53.594;9.938;2022-09-17T15:31:33;12.70;99.90
15452;DHT22;7827;53.594;9.938;2022-09-17T15:34:02;12.60;99.90
15452;DHT22;7827;53.594;9.938;2022-09-17T15:36:31;12.60;99.90
15452;DHT22;7827;53.594;9.938;2022-09-17T15:39:29;12.70;99.90
15452;DHT22;7827;53.594;9.938;2022-09-17T15:41:58;12.60;99.90
15452;DHT22;7827;53.594;9.938;2022-09-17T15:44:27;12.60;99.90
15452;DHT22;7827;53.594;9.938;2022-09-17T15:50:18;12.60;99.90
15452;DHT22;7827;53.594;9.938;2022-09-17T15:52:48;12.90;99.90
15452;DHT22;7827;53.594;9.938;2022-09-17T15:55:34;12.80;99.90
15452;DHT22;7827;53.594;9.938;2022-09-17T15:58:16;12.80;99.90
15452;DHT22;7827;53.594;9.938;2022-09-17T16:01:05;12.80;99.90
15452;DHT22;7827;53.594;9.938;2022-09-17T16:04:20;12.80;99.90
15452;DHT22;7827;53.594;9.938;2022-09-17T16:07:16;12.70;99.90
15452;DHT22;7827;53.594;9.938;2022-09-17T16:09:56;12.70;99.90
15452;DHT22;7827;53.594;9.938;2022-09-17T16:12:26;12.60;99.90
15452;DHT22;7827;53.594;9.938;2022-09-17T16:14:56;12.60;99.90
15452;DHT22;7827;53.594;9.938;2022-09-17T16:17:29;12.70;99.90
15452;DHT22;7827;53.594;9.938;2022-09-17T16:20:14;12.60;99.90
15452;DHT22;7827;53.594;9.938;2022-09-17T16:22:46;12.60;99.90
15452;DHT22;7827;53.594;9.938;2022-09-17T16:25:15;12.50;99.90
15452;DHT22;7827;53.594;9.938;2022-09-17T16:27:48;12.50;99.90
15452;DHT22;7827;53.594;9.938;2022-09-17T16:30:19;12.50;99.90
15452;DHT22;7827;53.594;9.938;2022-09-17T16:32:49;12.60;99.90
15452;DHT22;7827;53.594;9.938;2022-09-17T16:35:22;12.60;99.90
15452;DHT22;7827;53.594;9.938;2022-09-17T16:37:52;12.70;99.90
15452;DHT22;7827;53.594;9.938;2022-09-17T16:40:23;12.70;99.90
15452;DHT22;7827;53.594;9.938;2022-09-17T16:42:54;12.70;99.90
15452;DHT22;7827;53.594;9.938;2022-09-17T16:45:26;12.60;99.90
15452;DHT22;7827;53.594;9.938;2022-09-17T16:47:55;12.50;99.90
15452;DHT22;7827;53.594;9.938;2022-09-17T16:50:26;12.50;99.90
15452;DHT22;7827;53.594;9.938;2022-09-17T16:52:54;12.50;99.90
15452;DHT22;7827;53.594;9.938;2022-09-17T16:55:28;12.50;99.90
15452;DHT22;7827;53.594;9.938;2022-09-17T16:57:57;12.50;99.90